Time,TemperatureF,DewpointF,PressureIn,WindDirection,WindDirectionDegrees,WindSpeedMPH,WindSpeedGustMPH,Humidity,HourlyPrecipIn,Conditions,Clouds,dailyrainin,SoftwareType,DateUTC
2013-03-18 00:03:00,37.9,37.4,29.90,NNE,22,4.7,-999.0,98,-99.99,,,0.00,Acu-Link.com,2013-03-18 04:03:00,
2013-03-18 00:18:00,37.9,37.4,29.90,NNW,337,2.7,-999.0,98,-99.99,,,0.00,Acu-Link.com,2013-03-18 04:18:00,
2013-03-18 00:34:00,37.8,37.3,29.91,NE,45,1.7,-999.0,98,-99.99,,,0.00,Acu-Link.com,2013-03-18 04:34:00,
2013-03-18 00:49:00,37.2,36.7,29.89,NNE,22,4.2,-999.0,98,-99.99,,,0.00,Acu-Link.com,2013-03-18 04:49:00,
2013-03-18 01:04:00,37.2,36.7,29.90,NNE,22,2.2,-999.0,98,-99.99,,,0.00,Acu-Link.com,2013-03-18 05:04:00,
2013-03-18 01:19:00,37.2,36.7,29.89,NW,315,4.7,-999.0,98,-99.99,,,0.00,Acu-Link.com,2013-03-18 05:19:00,
2013-03-18 01:34:00,37.2,36.7,29.90,NNE,22,0.0,-999.0,98,-99.99,,,0.00,Acu-Link.com,2013-03-18 05:34:00,
2013-03-18 01:51:00,37.2,36.7,29.89,NNW,337,2.7,-999.0,98,-99.99,,,0.00,Acu-Link.com,2013-03-18 05:51:00,
2013-03-18 02:21:00,37.0,36.5,29.90,NW,315,0.0,-999.0,98,-99.99,,,0.00,Acu-Link.com,2013-03-18 06:21:00,
2013-03-18 02:36:00,36.9,36.4,29.90,North,0,1.1,-999.0,98,-99.99,,,0.00,Acu-Link.com,2013-03-18 06:36:00,
2013-03-18 02:52:00,36.7,36.2,29.90,West,270,1.7,-999.0,98,-99.99,,,0.01,Acu-Link.com,2013-03-18 06:52:00,
2013-03-18 03:07:00,36.5,36.0,29.89,North,0,1.1,-999.0,98,-99.99,,,0.01,Acu-Link.com,2013-03-18 07:07:00,
2013-03-18 03:22:00,36.5,36.0,29.89,ESE,112,1.1,-999.0,98,-99.99,,,0.01,Acu-Link.com,2013-03-18 07:22:00,
2013-03-18 03:37:00,36.3,35.8,29.89,North,0,2.2,-999.0,98,-99.99,,,0.01,Acu-Link.com,2013-03-18 07:37:00,
2013-03-18 03:53:00,36.3,35.8,29.89,North,0,1.7,-999.0,98,-99.99,,,0.01,Acu-Link.com,2013-03-18 07:53:00,
2013-03-18 04:08:00,36.1,35.6,29.89,West,270,3.7,-999.0,98,-99.99,,,0.01,Acu-Link.com,2013-03-18 08:08:00,
2013-03-18 04:23:00,36.1,35.6,29.89,NNE,22,2.7,-999.0,98,-99.99,,,0.01,Acu-Link.com,2013-03-18 08:23:00,
2013-03-18 04:39:00,36.1,35.6,29.90,NNE,22,2.2,-999.0,98,-99.99,,,0.01,Acu-Link.com,2013-03-18 08:39:00,
2013-03-18 04:54:00,36.1,35.6,29.89,NNW,337,0.0,-999.0,98,-99.99,,,0.01,Acu-Link.com,2013-03-18 08:54:00,
2013-03-18 05:09:00,36.1,35.6,29.90,NNW,337,3.2,-999.0,98,-99.99,,,0.01,Acu-Link.com,2013-03-18 09:09:00,
2013-03-18 05:24:00,36.0,35.5,29.89,NE,45,0.0,-999.0,98,-99.99,,,0.01,Acu-Link.com,2013-03-18 09:24:00,
2013-03-18 05:40:00,35.8,35.3,29.90,North,0,2.2,-999.0,98,-99.99,,,0.01,Acu-Link.com,2013-03-18 09:40:00,
2013-03-18 05:55:00,35.8,35.3,29.90,North,0,0.0,-999.0,98,-99.99,,,0.01,Acu-Link.com,2013-03-18 09:55:00,
2013-03-18 06:10:00,35.8,35.3,29.90,NNE,22,2.7,-999.0,98,-99.99,,,0.01,Acu-Link.com,2013-03-18 10:10:00,
2013-03-18 06:25:00,35.6,35.1,29.91,NNE,22,0.0,-999.0,98,-99.99,,,0.01,Acu-Link.com,2013-03-18 10:25:00,
2013-03-18 06:40:00,35.6,35.1,29.90,NW,315,1.7,-999.0,98,-99.99,,,0.02,Acu-Link.com,2013-03-18 10:40:00,
2013-03-18 07:11:00,35.6,35.1,29.90,NE,45,3.2,-999.0,98,-99.99,,,0.02,Acu-Link.com,2013-03-18 11:11:00,
2013-03-18 07:26:00,35.4,34.9,29.91,WSW,247,6.3,-999.0,98,-99.99,,,0.02,Acu-Link.com,2013-03-18 11:26:00,
2013-03-18 07:42:00,35.2,34.7,29.92,South,180,2.2,-999.0,98,-99.99,,,0.03,Acu-Link.com,2013-03-18 11:42:00,
2013-03-18 07:57:00,35.2,34.7,29.92,NNW,337,3.7,-999.0,98,-99.99,,,0.03,Acu-Link.com,2013-03-18 11:57:00,
2013-03-18 08:12:00,35.1,34.6,29.91,East,90,2.7,-999.0,98,-99.99,,,0.03,Acu-Link.com,2013-03-18 12:12:00,
2013-03-18 08:28:00,35.2,34.7,29.91,NW,315,0.0,-999.0,98,-99.99,,,0.03,Acu-Link.com,2013-03-18 12:28:00,
2013-03-18 08:43:00,35.2,34.7,29.91,NW,315,2.2,-999.0,98,-99.99,,,0.03,Acu-Link.com,2013-03-18 12:43:00,
2013-03-18 08:58:00,35.1,34.6,29.90,NNE,22,4.2,-999.0,98,-99.99,,,0.03,Acu-Link.com,2013-03-18 12:58:00,
2013-03-18 09:13:00,35.4,34.9,29.91,NW,315,1.7,-999.0,98,-99.99,,,0.03,Acu-Link.com,2013-03-18 13:13:00,
2013-03-18 09:28:00,35.2,34.7,29.91,North,0,2.2,-999.0,98,-99.99,,,0.03,Acu-Link.com,2013-03-18 13:28:00,
2013-03-18 09:44:00,35.4,34.9,29.91,SSW,202,0.0,-999.0,98,-99.99,,,0.03,Acu-Link.com,2013-03-18 13:44:00,
2013-03-18 09:59:00,35.2,34.7,29.91,NNE,22,0.0,-999.0,98,-99.99,,,0.03,Acu-Link.com,2013-03-18 13:59:00,
2013-03-18 10:14:00,35.4,34.9,29.89,NNE,22,1.7,-999.0,98,-99.99,,,0.03,Acu-Link.com,2013-03-18 14:14:00,
2013-03-18 10:29:00,35.2,34.7,29.91,NE,45,2.7,-999.0,98,-99.99,,,0.03,Acu-Link.com,2013-03-18 14:29:00,
2013-03-18 10:44:00,35.1,34.6,29.90,NNE,22,3.2,-999.0,98,-99.99,,,0.04,Acu-Link.com,2013-03-18 14:44:00,
2013-03-18 10:59:00,35.2,34.7,29.89,NNE,22,2.2,-999.0,98,-99.99,,,0.04,Acu-Link.com,2013-03-18 14:59:00,
2013-03-18 11:15:00,35.2,34.7,29.90,North,0,3.7,-999.0,98,-99.99,,,0.04,Acu-Link.com,2013-03-18 15:15:00,
2013-03-18 11:30:00,35.6,35.1,29.89,ENE,67,2.7,-999.0,98,-99.99,,,0.04,Acu-Link.com,2013-03-18 15:30:00,
2013-03-18 11:45:00,35.4,34.9,29.89,NNE,22,4.2,-999.0,98,-99.99,,,0.04,Acu-Link.com,2013-03-18 15:45:00,
2013-03-18 12:00:00,35.6,35.1,29.88,NE,45,1.1,-999.0,98,-99.99,,,0.05,Acu-Link.com,2013-03-18 16:00:00,
2013-03-18 12:15:00,35.6,35.1,29.89,North,0,2.7,-999.0,98,-99.99,,,0.05,Acu-Link.com,2013-03-18 16:15:00,
2013-03-18 12:31:00,36.1,35.6,29.87,NE,45,1.1,-999.0,98,-99.99,,,0.05,Acu-Link.com,2013-03-18 16:31:00,
2013-03-18 12:46:00,36.0,35.5,29.87,NW,315,2.2,-999.0,98,-99.99,,,0.05,Acu-Link.com,2013-03-18 16:46:00,
2013-03-18 13:01:00,36.3,35.8,29.85,NNE,22,2.2,-999.0,98,-99.99,,,0.05,Acu-Link.com,2013-03-18 17:01:00,
2013-03-18 13:16:00,36.5,36.0,29.85,NNE,22,3.2,-999.0,98,-99.99,,,0.05,Acu-Link.com,2013-03-18 17:16:00,
2013-03-18 13:32:00,36.5,36.0,29.84,NNE,22,2.2,-999.0,98,-99.99,,,0.05,Acu-Link.com,2013-03-18 17:32:00,
2013-03-18 13:47:00,36.7,36.2,29.83,ESE,112,0.0,-999.0,98,-99.99,,,0.05,Acu-Link.com,2013-03-18 17:47:00,
2013-03-18 14:02:00,37.0,36.5,29.81,NE,45,1.1,-999.0,98,-99.99,,,0.05,Acu-Link.com,2013-03-18 18:02:00,
2013-03-18 14:17:00,36.9,36.4,29.80,NE,45,2.7,-999.0,98,-99.99,,,0.05,Acu-Link.com,2013-03-18 18:17:00,
2013-03-18 14:32:00,36.5,36.0,29.79,NNE,22,1.7,-999.0,98,-99.99,,,0.05,Acu-Link.com,2013-03-18 18:32:00,
2013-03-18 14:48:00,37.0,36.5,29.78,East,90,2.2,-999.0,98,-99.99,,,0.05,Acu-Link.com,2013-03-18 18:48:00,
2013-03-18 15:03:00,37.4,36.9,29.77,NNW,337,0.0,-999.0,98,-99.99,,,0.05,Acu-Link.com,2013-03-18 19:03:00,
2013-03-18 15:18:00,37.0,36.5,29.78,NE,45,2.2,-999.0,98,-99.99,,,0.05,Acu-Link.com,2013-03-18 19:18:00,
2013-03-18 15:34:00,36.9,36.4,29.78,WNW,292,0.0,-999.0,98,-99.99,,,0.05,Acu-Link.com,2013-03-18 19:34:00,
2013-03-18 15:49:00,36.5,36.0,29.76,NNE,22,2.7,-999.0,98,-99.99,,,0.06,Acu-Link.com,2013-03-18 19:49:00,
2013-03-18 16:04:00,36.7,36.2,29.75,ESE,112,2.2,-999.0,98,-99.99,,,0.08,Acu-Link.com,2013-03-18 20:04:00,
2013-03-18 16:19:00,36.3,35.8,29.75,NNE,22,3.2,-999.0,98,-99.99,,,0.09,Acu-Link.com,2013-03-18 20:19:00,
2013-03-18 16:34:00,36.3,35.8,29.73,NNW,337,3.7,-999.0,98,-99.99,,,0.09,Acu-Link.com,2013-03-18 20:34:00,
2013-03-18 16:50:00,36.3,35.8,29.75,NNE,22,1.7,-999.0,98,-99.99,,,0.09,Acu-Link.com,2013-03-18 20:50:00,
2013-03-18 17:05:00,36.5,36.0,29.78,West,270,2.7,-999.0,98,-99.99,,,0.09,Acu-Link.com,2013-03-18 21:05:00,
2013-03-18 17:20:00,36.0,35.5,29.76,ENE,67,1.1,-999.0,98,-99.99,,,0.09,Acu-Link.com,2013-03-18 21:20:00,
2013-03-18 17:35:00,36.3,35.8,29.71,SW,225,2.7,-999.0,98,-99.99,,,0.10,Acu-Link.com,2013-03-18 21:35:00,
2013-03-18 18:06:00,36.3,35.8,29.77,West,270,2.7,-999.0,98,-99.99,,,0.12,Acu-Link.com,2013-03-18 22:06:00,
2013-03-18 18:21:00,36.1,35.6,29.75,ENE,67,0.0,-999.0,98,-99.99,,,0.15,Acu-Link.com,2013-03-18 22:21:00,
2013-03-18 18:36:00,36.1,35.6,29.75,SE,135,2.2,-999.0,98,-99.99,,,0.15,Acu-Link.com,2013-03-18 22:36:00,
2013-03-18 18:52:00,36.1,35.6,29.75,ESE,112,2.2,-999.0,98,-99.99,,,0.24,Acu-Link.com,2013-03-18 22:52:00,
2013-03-18 19:07:00,36.1,35.6,29.74,SW,225,0.0,-999.0,98,-99.99,,,0.30,Acu-Link.com,2013-03-18 23:07:00,
2013-03-18 19:23:00,36.1,35.6,29.74,SSE,157,0.0,-999.0,98,-99.99,,,0.35,Acu-Link.com,2013-03-18 23:23:00,
2013-03-18 19:38:00,36.1,35.6,29.73,ENE,67,0.0,-999.0,98,-99.99,,,0.35,Acu-Link.com,2013-03-18 23:38:00,
2013-03-18 19:53:00,36.1,35.6,29.71,West,270,0.0,-999.0,98,-99.99,,,0.35,Acu-Link.com,2013-03-18 23:53:00,
2013-03-18 20:08:00,36.1,35.6,29.71,NNW,337,0.0,-999.0,98,-99.99,,,0.35,Acu-Link.com,2013-03-19 00:08:00,
2013-03-18 20:24:00,36.1,35.6,29.69,SSE,157,0.0,-999.0,98,-99.99,,,0.35,Acu-Link.com,2013-03-19 00:24:00,
2013-03-18 20:39:00,36.1,35.6,29.67,South,180,1.1,-999.0,98,-99.99,,,0.35,Acu-Link.com,2013-03-19 00:39:00,
2013-03-18 20:54:00,36.1,35.6,29.68,SE,135,2.2,-999.0,98,-99.99,,,0.35,Acu-Link.com,2013-03-19 00:54:00,
2013-03-18 21:10:00,36.1,35.6,29.66,SW,225,0.0,-999.0,98,-99.99,,,0.35,Acu-Link.com,2013-03-19 01:10:00,
2013-03-18 21:25:00,36.1,35.6,29.65,ENE,67,1.7,-999.0,98,-99.99,,,0.35,Acu-Link.com,2013-03-19 01:25:00,
2013-03-18 21:40:00,36.0,35.5,29.64,SSW,202,2.7,-999.0,98,-99.99,,,0.35,Acu-Link.com,2013-03-19 01:40:00,
2013-03-18 21:56:00,36.0,35.5,29.64,West,270,0.0,-999.0,98,-99.99,,,0.35,Acu-Link.com,2013-03-19 01:56:00,
2013-03-18 22:41:00,36.3,35.8,29.63,SW,225,0.0,-999.0,98,-99.99,,,0.35,Acu-Link.com,2013-03-19 02:41:00,
2013-03-18 22:57:00,36.3,35.8,29.64,WSW,247,0.0,-999.0,98,-99.99,,,0.35,Acu-Link.com,2013-03-19 02:57:00,
2013-03-18 23:12:00,36.3,35.8,29.63,SSW,202,0.0,-999.0,98,-99.99,,,0.35,Acu-Link.com,2013-03-19 03:12:00,
2013-03-18 23:27:00,36.3,35.8,29.64,SW,225,0.0,-999.0,98,-99.99,,,0.35,Acu-Link.com,2013-03-19 03:27:00,
2013-03-18 23:43:00,36.3,35.8,29.64,SSW,202,0.0,-999.0,98,-99.99,,,0.35,Acu-Link.com,2013-03-19 03:43:00,
2013-03-18 23:58:00,36.1,35.6,29.66,SSW,202,0.0,-999.0,98,-99.99,,,0.35,Acu-Link.com,2013-03-19 03:58:00,